Terminal Aerodrome Forecast
Issued by NWS

Current Version | Previous Version | Text Only | Print | Product List | Glossary On
Versions: 1 2 3 4 5 6 7 8 9 10 11 12 13 14 15 16 17
000
FTUS43 KFGF 232300
TAFDVL
TAF
KDVL 232339Z 2400/2424 13023G30KT P6SM -RA OVC022
      TEMPO 2400/2404 4SM -RA BR OVC015
     FM240400 14010KT P6SM BKN025
     FM241200 20010KT P6SM SCT025
      AMD LTD TO CLD VIS AND WIND=

USA.gov is the U.S. government's official web portal to all federal, state and local government web resources and services.